createdAt,value
2019-02-17T00:00:37.778Z,5.20
2019-02-17T00:03:42.742Z,5.10
2019-02-17T00:06:47.848Z,5.10
2019-02-17T00:09:52.882Z,5.10
2019-02-17T00:12:57.923Z,5.10
2019-02-17T00:16:02.959Z,5.10
2019-02-17T00:19:08.018Z,5.10
2019-02-17T00:22:13.118Z,5.00
2019-02-17T00:25:20.408Z,5.00
2019-02-17T00:28:24.792Z,4.90
2019-02-17T00:31:29.837Z,4.90
2019-02-17T00:34:34.774Z,4.90
2019-02-17T00:37:39.760Z,4.90
2019-02-17T00:40:44.961Z,4.80
2019-02-17T00:43:49.981Z,4.80
2019-02-17T00:46:55.092Z,4.80
2019-02-17T00:50:00.317Z,4.80
2019-02-17T00:53:05.399Z,4.70
2019-02-17T00:56:10.459Z,4.70
2019-02-17T00:59:15.498Z,4.70
2019-02-17T01:02:20.599Z,4.70
2019-02-17T01:05:25.713Z,4.70
2019-02-17T01:08:32.582Z,4.60
2019-02-17T01:11:37.614Z,4.60
2019-02-17T01:14:42.726Z,4.60
2019-02-17T01:17:47.769Z,4.60
2019-02-17T01:20:53.059Z,4.60
2019-02-17T01:23:58.107Z,4.50
2019-02-17T01:27:03.224Z,4.40
2019-02-17T01:30:08.719Z,4.30
2019-02-17T01:33:13.840Z,4.30
2019-02-17T01:36:18.943Z,4.30
2019-02-17T01:39:23.987Z,4.30
2019-02-17T01:42:29.092Z,4.30
2019-02-17T01:45:34.207Z,4.20
2019-02-17T01:48:39.163Z,4.20
2019-02-17T01:51:44.204Z,4.20
2019-02-17T01:54:49.162Z,4.20
2019-02-17T01:57:54.292Z,4.20
2019-02-17T02:00:59.531Z,4.20
2019-02-17T02:04:04.724Z,4.20
2019-02-17T02:07:09.912Z,4.10
2019-02-17T02:10:15.027Z,4.10
2019-02-17T02:13:20.215Z,4.10
2019-02-17T02:16:25.272Z,4.00
2019-02-17T02:19:30.392Z,4.00
2019-02-17T02:22:35.450Z,4.00
2019-02-17T02:25:40.487Z,4.10
2019-02-17T02:28:45.467Z,4.10
2019-02-17T02:31:50.428Z,4.10
2019-02-17T02:34:57.371Z,4.10
2019-02-17T02:38:02.408Z,4.10
2019-02-17T02:41:07.375Z,4.10
2019-02-17T02:44:12.341Z,4.00
2019-02-17T02:47:17.481Z,4.00
2019-02-17T02:50:22.716Z,4.00
2019-02-17T02:53:27.754Z,4.00
2019-02-17T02:56:32.812Z,4.00
2019-02-17T02:59:37.847Z,4.00
2019-02-17T03:02:42.919Z,4.00
2019-02-17T03:06:00.332Z,4.00
2019-02-17T03:09:06.040Z,3.90
2019-02-17T03:12:11.169Z,3.80
2019-02-17T03:15:16.132Z,3.80
2019-02-17T03:18:21.187Z,3.70
2019-02-17T03:21:26.219Z,3.70
2019-02-17T03:24:31.335Z,3.60
2019-02-17T03:27:36.408Z,3.60
2019-02-17T03:30:41.440Z,3.60
2019-02-17T03:33:46.577Z,3.60
2019-02-17T03:36:51.616Z,3.60
2019-02-17T03:39:56.585Z,3.60
2019-02-17T03:43:01.690Z,3.60
2019-02-17T03:46:06.751Z,3.50
2019-02-17T03:49:11.976Z,3.50
2019-02-17T03:52:17.032Z,3.50
2019-02-17T03:55:22.118Z,3.50
2019-02-17T03:58:27.245Z,3.50
2019-02-17T04:01:32.384Z,3.50
2019-02-17T04:04:37.432Z,3.40
2019-02-17T04:07:42.486Z,3.40
2019-02-17T04:10:47.518Z,3.30
2019-02-17T04:13:52.552Z,3.30
2019-02-17T04:16:57.680Z,3.30
2019-02-17T04:20:02.795Z,3.30
2019-02-17T04:23:07.802Z,3.30
2019-02-17T04:26:12.841Z,3.30
2019-02-17T04:29:17.875Z,3.30
2019-02-17T04:32:22.852Z,3.30
2019-02-17T04:35:28.043Z,3.30
2019-02-17T04:38:33.024Z,3.30
2019-02-17T04:41:38.075Z,3.30
2019-02-17T04:44:43.116Z,3.20
2019-02-17T04:47:48.157Z,3.20
2019-02-17T04:50:53.193Z,3.20
2019-02-17T04:53:58.323Z,3.20
2019-02-17T04:57:03.436Z,3.20
2019-02-17T05:00:08.820Z,3.20
2019-02-17T05:03:14.991Z,3.10
2019-02-17T05:06:20.043Z,3.10
2019-02-17T05:09:25.091Z,3.10
2019-02-17T05:12:30.219Z,3.10
2019-02-17T05:15:35.356Z,3.10
2019-02-17T05:18:40.389Z,3.10
2019-02-17T05:21:45.375Z,3.10
2019-02-17T05:24:50.403Z,3.10
2019-02-17T05:27:55.442Z,3.10
2019-02-17T05:31:00.483Z,3.00
2019-02-17T05:34:05.527Z,3.10
2019-02-17T05:37:10.599Z,3.10
2019-02-17T05:40:15.708Z,3.00
2019-02-17T05:43:20.831Z,3.00
2019-02-17T05:46:25.791Z,2.90
2019-02-17T05:49:30.912Z,2.90
2019-02-17T05:52:36.020Z,2.90
2019-02-17T05:55:41.061Z,2.90
2019-02-17T05:58:46.039Z,2.90
2019-02-17T06:01:51.139Z,2.90
2019-02-17T06:04:56.141Z,2.80
2019-02-17T06:08:01.330Z,2.80
2019-02-17T06:11:06.452Z,2.80
2019-02-17T06:14:11.479Z,2.70
2019-02-17T06:17:16.512Z,2.80
2019-02-17T06:20:21.576Z,2.80
2019-02-17T06:23:26.624Z,2.80
2019-02-17T06:26:31.679Z,2.80
2019-02-17T06:29:36.646Z,2.80
2019-02-17T06:32:41.692Z,2.80
2019-02-17T06:35:46.802Z,2.70
2019-02-17T06:38:51.860Z,2.80
2019-02-17T06:41:56.833Z,2.80
2019-02-17T06:45:01.835Z,2.80
2019-02-17T06:48:07.105Z,2.80
2019-02-17T06:51:12.147Z,2.80
2019-02-17T06:54:17.213Z,2.80
2019-02-17T06:57:26.604Z,2.80
2019-02-17T07:00:37.076Z,2.80
2019-02-17T07:03:42.028Z,2.80
2019-02-17T07:07:06.252Z,2.80
2019-02-17T07:10:11.362Z,2.80
2019-02-17T07:13:16.433Z,2.80
2019-02-17T07:16:22.728Z,2.80
2019-02-17T07:19:27.931Z,2.80
2019-02-17T07:22:32.988Z,2.80
2019-02-17T07:25:38.019Z,2.80
2019-02-17T07:28:43.070Z,2.80
2019-02-17T07:31:48.103Z,2.90
2019-02-17T07:34:53.164Z,2.90
2019-02-17T07:37:58.196Z,2.90
2019-02-17T07:41:03.239Z,3.00
2019-02-17T07:44:08.342Z,3.00
2019-02-17T07:47:13.390Z,3.00
2019-02-17T07:50:18.580Z,3.00
2019-02-17T07:53:23.681Z,3.10
2019-02-17T07:56:28.659Z,3.10
2019-02-17T07:59:33.702Z,3.20
2019-02-17T08:02:38.821Z,3.20
2019-02-17T08:05:43.877Z,3.30
2019-02-17T08:08:48.880Z,3.30
2019-02-17T08:11:53.998Z,3.40
2019-02-17T08:14:59.026Z,3.40
2019-02-17T08:18:05.283Z,3.50
2019-02-17T08:21:10.322Z,3.50
2019-02-17T08:24:15.374Z,3.60
2019-02-17T08:27:20.408Z,3.70
2019-02-17T08:30:25.531Z,3.70
2019-02-17T08:33:30.567Z,3.80
2019-02-17T08:36:35.623Z,3.90
2019-02-17T08:39:40.680Z,4.00
2019-02-17T08:42:45.858Z,4.00
2019-02-17T08:45:50.902Z,4.20
2019-02-17T08:48:55.919Z,4.30
2019-02-17T08:52:00.998Z,4.40
2019-02-17T08:55:07.163Z,4.50
2019-02-17T08:58:12.241Z,4.60
2019-02-17T09:01:17.387Z,4.70
2019-02-17T09:04:22.565Z,4.80
2019-02-17T09:07:27.544Z,4.90
2019-02-17T09:10:32.671Z,5.00
2019-02-17T09:13:37.738Z,5.10
2019-02-17T09:16:42.695Z,5.30
2019-02-17T09:19:47.995Z,5.40
2019-02-17T09:22:53.075Z,5.50
2019-02-17T09:25:58.184Z,5.70
2019-02-17T09:29:03.238Z,5.80
2019-02-17T09:32:15.997Z,6.00
2019-02-17T09:35:15.233Z,6.10
2019-02-17T09:38:20.355Z,6.20
2019-02-17T09:41:25.466Z,6.40
2019-02-17T09:44:30.580Z,6.60
2019-02-17T09:47:35.555Z,6.70
2019-02-17T09:50:40.683Z,6.90
2019-02-17T09:53:45.796Z,7.10
2019-02-17T09:56:50.920Z,7.20
2019-02-17T09:59:55.897Z,7.40
2019-02-17T10:03:00.864Z,7.60
2019-02-17T10:06:05.916Z,7.70
2019-02-17T10:09:10.968Z,7.90
2019-02-17T10:12:16.012Z,8.10
2019-02-17T10:15:20.974Z,8.20
2019-02-17T10:18:26.087Z,8.40
2019-02-17T10:21:31.107Z,8.50
2019-02-17T10:24:36.175Z,8.60
2019-02-17T10:27:41.162Z,8.70
2019-02-17T10:30:46.280Z,8.90
2019-02-17T10:33:51.256Z,9.00
2019-02-17T10:36:56.379Z,9.20
2019-02-17T10:40:01.439Z,9.30
2019-02-17T10:43:06.539Z,9.40
2019-02-17T10:46:11.619Z,9.50
2019-02-17T10:49:16.667Z,9.60
2019-02-17T10:52:21.803Z,9.70
2019-02-17T10:55:26.952Z,9.80
2019-02-17T10:58:31.982Z,10.00
2019-02-17T11:01:37.036Z,10.10
2019-02-17T11:04:42.075Z,10.20
2019-02-17T11:07:47.145Z,10.30
2019-02-17T11:10:52.292Z,10.40
2019-02-17T11:13:57.362Z,10.50
2019-02-17T11:17:02.421Z,10.60
2019-02-17T11:20:07.651Z,10.70
2019-02-17T11:23:12.663Z,10.80
2019-02-17T11:26:17.773Z,10.90
2019-02-17T11:29:22.947Z,11.00
2019-02-17T11:32:28.058Z,11.10
2019-02-17T11:35:33.947Z,11.20
2019-02-17T11:38:38.997Z,11.30
2019-02-17T11:41:44.128Z,11.40
2019-02-17T11:44:49.212Z,11.50
2019-02-17T11:47:54.551Z,11.70
2019-02-17T11:50:59.592Z,11.80
2019-02-17T11:54:04.763Z,11.90
2019-02-17T11:57:09.897Z,12.00
2019-02-17T12:00:17.275Z,12.10
2019-02-17T12:03:22.322Z,12.20
2019-02-17T12:06:27.445Z,12.30
2019-02-17T12:09:32.566Z,12.40
2019-02-17T12:12:37.752Z,12.60
2019-02-17T12:15:42.796Z,12.70
2019-02-17T12:18:48.057Z,12.80
2019-02-17T12:21:58.275Z,12.90
2019-02-17T12:25:14.063Z,13.00
2019-02-17T12:28:23.946Z,13.10
2019-02-17T12:31:33.476Z,13.20
2019-02-17T12:34:38.622Z,13.20
2019-02-17T12:37:43.602Z,13.30
2019-02-17T12:40:48.641Z,13.30
2019-02-17T12:43:53.684Z,13.40
2019-02-17T12:46:59.241Z,13.40
2019-02-17T12:50:05.100Z,13.50
2019-02-17T12:53:10.270Z,13.60
2019-02-17T12:56:15.441Z,13.60
2019-02-17T12:59:20.392Z,13.60
2019-02-17T13:02:25.391Z,13.70
2019-02-17T13:05:30.549Z,13.80
2019-02-17T13:08:35.599Z,13.80
2019-02-17T13:11:40.799Z,13.90
2019-02-17T13:14:45.915Z,13.90
2019-02-17T13:17:52.981Z,13.90
2019-02-17T13:20:57.716Z,13.90
2019-02-17T13:24:02.852Z,14.00
2019-02-17T13:27:07.973Z,13.90
2019-02-17T13:30:18.256Z,13.90
2019-02-17T13:33:23.392Z,13.90
2019-02-17T13:36:28.436Z,13.90
2019-02-17T13:39:33.575Z,13.90
2019-02-17T13:42:38.701Z,13.90
2019-02-17T13:45:44.826Z,13.90
2019-02-17T13:48:50.054Z,13.90
2019-02-17T13:51:55.177Z,13.90
2019-02-17T13:55:00.412Z,13.90
2019-02-17T13:58:05.450Z,13.90
2019-02-17T14:01:10.604Z,13.90
2019-02-17T14:04:15.768Z,13.90
2019-02-17T14:07:20.891Z,13.90
2019-02-17T14:10:25.935Z,13.90
2019-02-17T14:13:31.063Z,13.90
2019-02-17T14:16:36.124Z,13.90
2019-02-17T14:19:41.342Z,13.90
2019-02-17T14:22:47.281Z,13.90
2019-02-17T14:25:52.462Z,14.00
2019-02-17T14:28:57.613Z,14.00
2019-02-17T14:32:02.644Z,14.10
2019-02-17T14:35:07.799Z,14.10
2019-02-17T14:38:12.908Z,14.10
2019-02-17T14:41:18.090Z,14.20
2019-02-17T14:44:23.188Z,14.20
2019-02-17T14:47:28.284Z,14.20
2019-02-17T14:50:33.400Z,14.20
2019-02-17T14:53:38.601Z,14.20
2019-02-17T14:56:43.652Z,14.20
2019-02-17T14:59:48.715Z,14.20
2019-02-17T15:02:53.737Z,14.20
2019-02-17T15:05:58.704Z,14.20
2019-02-17T15:09:05.508Z,14.20
2019-02-17T15:12:10.467Z,14.10
2019-02-17T15:15:15.624Z,14.10
2019-02-17T15:18:20.686Z,14.10
2019-02-17T15:21:25.702Z,14.10
2019-02-17T15:24:30.764Z,14.00
2019-02-17T15:27:35.888Z,13.90
2019-02-17T15:30:41.023Z,13.90
2019-02-17T15:33:46.078Z,13.90
2019-02-17T15:36:51.219Z,13.90
2019-02-17T15:39:56.198Z,13.80
2019-02-17T15:43:01.729Z,13.80
2019-02-17T15:46:06.849Z,13.70
2019-02-17T15:49:11.932Z,13.70
2019-02-17T15:52:16.931Z,13.60
2019-02-17T15:55:22.193Z,13.60
2019-02-17T15:58:27.258Z,13.60
2019-02-17T16:01:32.308Z,13.50
2019-02-17T16:04:37.626Z,13.50
2019-02-17T16:07:42.913Z,13.40
2019-02-17T16:10:47.968Z,13.40
2019-02-17T16:13:53.103Z,13.40
2019-02-17T16:16:58.099Z,13.30
2019-02-17T16:20:04.496Z,13.30
2019-02-17T16:23:09.544Z,13.20
2019-02-17T16:26:14.602Z,13.20
2019-02-17T16:29:19.605Z,13.10
2019-02-17T16:32:26.433Z,13.00
2019-02-17T16:35:31.503Z,13.00
2019-02-17T16:38:36.543Z,12.90
2019-02-17T16:41:41.898Z,12.80
2019-02-17T16:44:47.017Z,12.70
2019-02-17T16:47:52.115Z,12.60
2019-02-17T16:50:57.167Z,12.50
2019-02-17T16:54:04.104Z,12.50
2019-02-17T16:57:09.235Z,12.40
2019-02-17T17:00:18.140Z,12.30
2019-02-17T17:03:23.295Z,12.30
2019-02-17T17:06:28.420Z,12.20
2019-02-17T17:09:33.562Z,12.10
2019-02-17T17:12:38.725Z,12.10
2019-02-17T17:15:43.770Z,12.00
2019-02-17T17:18:48.783Z,12.00
2019-02-17T17:21:54.868Z,11.90
2019-02-17T17:24:59.946Z,11.80
2019-02-17T17:28:05.088Z,11.60
2019-02-17T17:31:10.352Z,11.50
2019-02-17T17:34:15.352Z,11.30
2019-02-17T17:37:20.392Z,11.20
2019-02-17T17:40:25.672Z,11.10
2019-02-17T17:43:30.634Z,10.90
2019-02-17T17:46:35.680Z,10.80
2019-02-17T17:49:40.718Z,10.70
2019-02-17T17:52:45.929Z,10.60
2019-02-17T17:55:51.052Z,10.50
2019-02-17T17:58:56.187Z,10.40
2019-02-17T18:02:01.173Z,10.40
2019-02-17T18:05:09.135Z,10.30
2019-02-17T18:08:13.035Z,10.20
2019-02-17T18:11:18.672Z,10.20
2019-02-17T18:14:23.808Z,10.10
2019-02-17T18:17:28.891Z,10.00
2019-02-17T18:20:35.361Z,10.00
2019-02-17T18:23:40.929Z,9.90
2019-02-17T18:26:45.904Z,9.80
2019-02-17T18:29:50.972Z,9.80
2019-02-17T18:32:55.945Z,9.70
2019-02-17T18:36:01.085Z,9.70
2019-02-17T18:39:06.921Z,9.70
2019-02-17T18:42:11.968Z,9.60
2019-02-17T18:45:18.021Z,9.60
2019-02-17T18:48:23.063Z,9.50
2019-02-17T18:51:29.375Z,9.50
2019-02-17T18:54:37.492Z,9.40
2019-02-17T18:57:49.539Z,9.40
2019-02-17T19:00:49.538Z,9.20
2019-02-17T19:03:54.727Z,9.20
2019-02-17T19:06:59.767Z,9.10
2019-02-17T19:10:06.283Z,9.00
2019-02-17T19:13:11.240Z,9.00
2019-02-17T19:16:16.294Z,9.00
2019-02-17T19:19:21.345Z,8.90
2019-02-17T19:22:26.410Z,8.90
2019-02-17T19:25:31.536Z,8.90
2019-02-17T19:28:36.567Z,8.90
2019-02-17T19:31:41.642Z,8.80
2019-02-17T19:34:46.608Z,8.80
2019-02-17T19:37:52.365Z,8.70
2019-02-17T19:40:57.376Z,8.70
2019-02-17T19:44:02.599Z,8.70
2019-02-17T19:47:07.617Z,8.70
2019-02-17T19:50:12.795Z,8.60
2019-02-17T19:53:17.886Z,8.60
2019-02-17T19:56:23.220Z,8.60
2019-02-17T19:59:28.556Z,8.50
2019-02-17T20:02:51.195Z,8.50
2019-02-17T20:05:59.068Z,8.40
2019-02-17T20:09:06.535Z,8.40
2019-02-17T20:12:11.676Z,8.30
2019-02-17T20:15:16.643Z,8.30
2019-02-17T20:18:21.619Z,8.20
2019-02-17T20:21:26.712Z,8.20
2019-02-17T20:24:31.957Z,8.10
2019-02-17T20:27:37.128Z,8.10
2019-02-17T20:30:42.312Z,8.00
2019-02-17T20:33:47.460Z,8.00
2019-02-17T20:36:52.565Z,8.00
2019-02-17T20:39:57.687Z,8.00
2019-02-17T20:43:02.739Z,8.00
2019-02-17T20:46:07.726Z,7.90
2019-02-17T20:49:12.849Z,7.90
2019-02-17T20:52:18.323Z,7.80
2019-02-17T20:55:23.632Z,7.80
2019-02-17T20:58:28.659Z,7.70
2019-02-17T21:01:33.863Z,7.70
2019-02-17T21:04:39.516Z,7.70
2019-02-17T21:07:44.688Z,7.60
2019-02-17T21:10:49.870Z,7.60
2019-02-17T21:13:55.401Z,7.60
2019-02-17T21:17:01.030Z,7.60
2019-02-17T21:20:07.742Z,7.60
2019-02-17T21:23:12.844Z,7.50
2019-02-17T21:26:17.903Z,7.50
2019-02-17T21:29:23.284Z,7.50
2019-02-17T21:32:28.596Z,7.50
2019-02-17T21:35:33.725Z,7.50
2019-02-17T21:38:39.199Z,7.40
2019-02-17T21:41:44.448Z,7.40
2019-02-17T21:44:49.515Z,7.40
2019-02-17T21:47:54.561Z,7.30
2019-02-17T21:50:59.672Z,7.30
2019-02-17T21:54:04.780Z,7.20
2019-02-17T21:57:09.890Z,7.20
2019-02-17T22:00:16.736Z,7.10
2019-02-17T22:03:21.795Z,7.10
2019-02-17T22:06:33.178Z,7.10
2019-02-17T22:09:33.639Z,7.00
2019-02-17T22:12:38.849Z,7.00
2019-02-17T22:15:43.813Z,7.00
2019-02-17T22:18:48.836Z,7.00
2019-02-17T22:21:53.892Z,7.00
2019-02-17T22:24:58.928Z,6.90
2019-02-17T22:28:04.065Z,6.90
2019-02-17T22:31:09.117Z,6.90
2019-02-17T22:34:14.225Z,6.80
2019-02-17T22:37:19.350Z,6.80
2019-02-17T22:40:24.383Z,6.80
2019-02-17T22:43:29.503Z,6.70
2019-02-17T22:46:34.535Z,6.70
2019-02-17T22:49:39.519Z,6.60
2019-02-17T22:52:45.236Z,6.60
2019-02-17T22:55:50.295Z,6.50
2019-02-17T22:58:55.482Z,6.50
2019-02-17T23:02:00.583Z,6.40
2019-02-17T23:05:06.286Z,6.40
2019-02-17T23:08:11.391Z,6.30
2019-02-17T23:11:16.507Z,6.30
2019-02-17T23:14:21.571Z,6.30
2019-02-17T23:17:26.612Z,6.20
2019-02-17T23:20:31.737Z,6.10
2019-02-17T23:23:36.864Z,6.10
2019-02-17T23:26:42.055Z,6.00
2019-02-17T23:29:47.103Z,6.00
2019-02-17T23:32:52.235Z,5.90
2019-02-17T23:35:57.283Z,5.90
2019-02-17T23:39:02.413Z,5.90
2019-02-17T23:42:07.632Z,5.90
2019-02-17T23:45:12.765Z,5.80
2019-02-17T23:48:18.142Z,5.80
2019-02-17T23:51:23.266Z,5.80
2019-02-17T23:54:28.388Z,5.70
2019-02-17T23:57:33.436Z,5.70
